createdAt,value
2019-03-15T00:00:32.816Z,1.40
2019-03-15T00:03:01.910Z,1.40
2019-03-15T00:05:31.222Z,1.70
2019-03-15T00:08:00.440Z,1.13
2019-03-15T00:10:30.077Z,1.13
2019-03-15T00:12:59.232Z,1.47
2019-03-15T00:15:31.370Z,1.57
2019-03-15T00:18:00.372Z,1.00
2019-03-15T00:20:29.559Z,1.47
2019-03-15T00:22:58.762Z,1.00
2019-03-15T00:25:29.491Z,1.30
2019-03-15T00:27:58.756Z,1.40
2019-03-15T00:30:28.108Z,1.30
2019-03-15T00:33:02.048Z,1.20
2019-03-15T00:35:31.878Z,1.33
2019-03-15T00:38:06.785Z,2.20
2019-03-15T00:40:39.448Z,1.27
2019-03-15T00:43:12.155Z,1.50
2019-03-15T00:45:43.106Z,1.50
2019-03-15T00:48:22.514Z,1.80
2019-03-15T00:50:45.618Z,1.70
2019-03-15T00:53:25.140Z,1.13
2019-03-15T00:55:57.948Z,1.37
2019-03-15T00:58:38.180Z,1.80
2019-03-15T01:01:07.569Z,1.67
2019-03-15T01:03:37.744Z,1.80
2019-03-15T01:06:07.638Z,1.80
2019-03-15T01:08:36.963Z,1.43
2019-03-15T01:11:07.825Z,1.53
2019-03-15T01:13:37.253Z,1.47
2019-03-15T01:16:09.075Z,1.80
2019-03-15T01:18:39.958Z,1.70
2019-03-15T01:21:08.802Z,1.87
2019-03-15T01:23:37.644Z,1.70
2019-03-15T01:26:06.434Z,1.80
2019-03-15T01:28:35.259Z,2.00
2019-03-15T01:31:04.113Z,1.43
2019-03-15T01:33:33.176Z,2.53
2019-03-15T01:36:02.031Z,2.10
2019-03-15T01:38:31.022Z,1.87
2019-03-15T01:41:00.181Z,3.53
2019-03-15T01:43:29.023Z,2.03
2019-03-15T01:45:57.900Z,2.00
2019-03-15T01:48:26.765Z,2.27
2019-03-15T01:50:55.665Z,2.20
2019-03-15T01:53:24.509Z,3.13
2019-03-15T01:55:53.422Z,2.13
2019-03-15T01:58:22.325Z,2.07
2019-03-15T02:00:51.189Z,3.10
2019-03-15T02:03:20.063Z,1.80
2019-03-15T02:05:49.036Z,2.43
2019-03-15T02:08:17.835Z,2.43
2019-03-15T02:10:46.794Z,2.40
2019-03-15T02:13:15.823Z,2.40
2019-03-15T02:15:44.695Z,2.60
2019-03-15T02:18:13.603Z,2.40
2019-03-15T02:20:42.479Z,3.07
2019-03-15T02:23:11.352Z,2.30
2019-03-15T02:25:40.189Z,2.17
2019-03-15T02:28:09.121Z,2.33
2019-03-15T02:30:38.188Z,1.90
2019-03-15T02:33:07.307Z,2.27
2019-03-15T02:35:36.182Z,1.90
2019-03-15T02:38:05.190Z,2.80
2019-03-15T02:40:34.070Z,2.00
2019-03-15T02:43:03.115Z,2.50
2019-03-15T02:45:33.045Z,2.77
2019-03-15T02:48:02.013Z,2.20
2019-03-15T02:50:30.941Z,1.90
2019-03-15T02:52:59.930Z,1.80
2019-03-15T02:55:28.967Z,2.00
2019-03-15T02:57:57.821Z,2.47
2019-03-15T03:00:26.706Z,1.93
2019-03-15T03:02:55.700Z,2.17
2019-03-15T03:05:24.512Z,1.43
2019-03-15T03:07:53.461Z,2.67
2019-03-15T03:10:22.263Z,1.60
2019-03-15T03:12:51.245Z,1.83
2019-03-15T03:15:20.148Z,1.90
2019-03-15T03:17:49.080Z,1.30
2019-03-15T03:20:17.938Z,1.73
2019-03-15T03:22:46.761Z,1.77
2019-03-15T03:25:17.249Z,1.33
2019-03-15T03:27:46.471Z,1.60
2019-03-15T03:30:16.905Z,1.40
2019-03-15T03:32:45.979Z,1.50
2019-03-15T03:35:14.911Z,2.23
2019-03-15T03:37:45.151Z,2.00
2019-03-15T03:40:14.445Z,1.90
2019-03-15T03:42:43.408Z,2.60
2019-03-15T03:45:12.369Z,2.50
2019-03-15T03:47:41.294Z,2.47
2019-03-15T03:50:10.341Z,2.37
2019-03-15T03:52:41.759Z,2.07
2019-03-15T03:55:09.903Z,2.80
2019-03-15T03:57:39.006Z,2.33
2019-03-15T04:00:08.592Z,2.47
2019-03-15T04:02:37.380Z,2.70
2019-03-15T04:05:06.516Z,3.53
2019-03-15T04:07:35.365Z,1.97
2019-03-15T04:10:05.696Z,2.87
2019-03-15T04:12:34.606Z,2.00
2019-03-15T04:15:03.816Z,1.90
2019-03-15T04:17:32.790Z,2.13
2019-03-15T04:20:01.702Z,2.10
2019-03-15T04:22:30.531Z,1.93
2019-03-15T04:24:59.508Z,2.13
2019-03-15T04:27:28.435Z,2.73
2019-03-15T04:29:57.302Z,1.80
2019-03-15T04:32:26.160Z,1.93
2019-03-15T04:34:55.068Z,2.07
2019-03-15T04:37:23.964Z,1.80
2019-03-15T04:39:52.832Z,1.80
2019-03-15T04:42:21.746Z,2.40
2019-03-15T04:44:50.601Z,2.47
2019-03-15T04:47:19.486Z,2.13
2019-03-15T04:49:48.348Z,1.80
2019-03-15T04:52:17.253Z,2.50
2019-03-15T04:54:46.154Z,2.10
2019-03-15T04:57:15.074Z,2.80
2019-03-15T04:59:43.878Z,2.07
2019-03-15T05:02:12.856Z,1.67
2019-03-15T05:04:41.814Z,1.57
2019-03-15T05:07:10.666Z,1.90
2019-03-15T05:09:39.549Z,1.63
2019-03-15T05:12:08.507Z,1.87
2019-03-15T05:14:37.354Z,1.47
2019-03-15T05:17:06.254Z,1.80
2019-03-15T05:19:35.181Z,1.67
2019-03-15T05:22:04.061Z,2.10
2019-03-15T05:24:32.946Z,1.80
2019-03-15T05:27:01.793Z,1.90
2019-03-15T05:29:30.806Z,2.47
2019-03-15T05:31:59.670Z,3.03
2019-03-15T05:34:28.591Z,2.13
2019-03-15T05:36:57.611Z,1.57
2019-03-15T05:39:26.489Z,2.10
2019-03-15T05:41:55.568Z,1.90
2019-03-15T05:44:24.496Z,2.70
2019-03-15T05:46:53.475Z,2.57
2019-03-15T05:49:22.313Z,2.17
2019-03-15T05:51:51.219Z,1.70
2019-03-15T05:54:20.075Z,2.17
2019-03-15T05:56:48.940Z,2.50
2019-03-15T05:59:17.842Z,2.70
2019-03-15T06:01:46.744Z,2.67
2019-03-15T06:04:15.951Z,2.60
2019-03-15T06:06:44.957Z,2.33
2019-03-15T06:09:14.011Z,2.50
2019-03-15T06:11:42.998Z,2.93
2019-03-15T06:14:11.914Z,3.07
2019-03-15T06:16:40.745Z,4.17
2019-03-15T06:19:09.892Z,3.13
2019-03-15T06:21:38.836Z,2.80
2019-03-15T06:24:07.715Z,3.20
2019-03-15T06:26:36.707Z,2.33
2019-03-15T06:29:06.829Z,2.47
2019-03-15T06:31:35.913Z,2.03
2019-03-15T06:34:04.985Z,2.83
2019-03-15T06:36:33.937Z,2.90
2019-03-15T06:39:03.121Z,2.60
2019-03-15T06:41:32.146Z,3.90
2019-03-15T06:44:01.358Z,1.93
2019-03-15T06:46:30.317Z,2.40
2019-03-15T06:48:59.230Z,2.30
2019-03-15T06:51:28.139Z,1.70
2019-03-15T06:54:10.596Z,2.93
2019-03-15T06:56:27.803Z,2.60
2019-03-15T06:58:56.705Z,1.80
2019-03-15T07:01:25.787Z,2.50
2019-03-15T07:03:54.700Z,2.60
2019-03-15T07:06:23.739Z,2.20
2019-03-15T07:08:53.861Z,2.20
2019-03-15T07:11:22.701Z,2.70
2019-03-15T07:13:51.617Z,2.40
2019-03-15T07:16:20.667Z,2.70
2019-03-15T07:18:49.647Z,2.77
2019-03-15T07:21:18.619Z,2.17
2019-03-15T07:23:47.612Z,2.33
2019-03-15T07:26:16.588Z,2.60
2019-03-15T07:28:45.607Z,1.70
2019-03-15T07:31:14.541Z,3.33
2019-03-15T07:33:43.433Z,2.20
2019-03-15T07:36:12.341Z,3.03
2019-03-15T07:38:41.219Z,1.60
2019-03-15T07:41:10.108Z,2.43
2019-03-15T07:43:39.105Z,2.90
2019-03-15T07:46:08.093Z,1.70
2019-03-15T07:48:36.953Z,2.37
2019-03-15T07:51:05.972Z,2.13
2019-03-15T07:53:35.544Z,1.90
2019-03-15T07:56:05.059Z,1.70
2019-03-15T07:58:34.148Z,1.63
2019-03-15T08:01:03.088Z,1.97
2019-03-15T08:03:32.293Z,2.20
2019-03-15T08:06:01.195Z,1.80
2019-03-15T08:08:30.169Z,1.70
2019-03-15T08:10:59.119Z,1.53
2019-03-15T08:13:28.030Z,1.80
2019-03-15T08:15:56.980Z,2.10
2019-03-15T08:18:25.809Z,2.70
2019-03-15T08:20:54.840Z,2.10
2019-03-15T08:23:23.729Z,2.77
2019-03-15T08:25:52.679Z,2.23
2019-03-15T08:28:21.719Z,2.00
2019-03-15T08:30:50.675Z,1.80
2019-03-15T08:33:19.599Z,1.80
2019-03-15T08:35:48.493Z,2.10
2019-03-15T08:38:17.454Z,2.20
2019-03-15T08:40:46.347Z,2.30
2019-03-15T08:43:15.272Z,2.73
2019-03-15T08:45:44.138Z,2.03
2019-03-15T08:48:13.063Z,2.70
2019-03-15T08:50:41.888Z,2.17
2019-03-15T08:53:10.837Z,1.90
2019-03-15T08:59:06.939Z,2.07
2019-03-15T09:01:46.934Z,2.90
2019-03-15T09:04:39.900Z,2.30
2019-03-15T09:07:11.788Z,3.20
2019-03-15T09:09:50.832Z,3.20
2019-03-15T09:16:13.580Z,3.80
2019-03-15T09:18:42.449Z,4.07
2019-03-15T09:21:11.319Z,3.73
2019-03-15T09:23:40.142Z,2.83
2019-03-15T09:26:10.435Z,4.03
2019-03-15T09:28:39.526Z,3.17
2019-03-15T09:31:08.350Z,3.50
2019-03-15T09:33:37.298Z,3.67
2019-03-15T09:36:06.269Z,4.10
2019-03-15T09:38:35.157Z,3.67
2019-03-15T09:41:04.016Z,4.70
2019-03-15T09:43:33.034Z,3.67
2019-03-15T09:46:01.910Z,4.37
2019-03-15T09:48:30.829Z,4.73
2019-03-15T09:50:59.648Z,3.40
2019-03-15T09:53:28.586Z,3.67
2019-03-15T09:55:57.448Z,3.50
2019-03-15T09:58:26.318Z,3.37
2019-03-15T10:00:55.460Z,3.47
2019-03-15T10:03:24.375Z,3.73
2019-03-15T10:05:53.370Z,3.40
2019-03-15T10:08:23.771Z,3.00
2019-03-15T10:10:52.960Z,2.87
2019-03-15T10:13:21.923Z,3.40
2019-03-15T10:15:50.849Z,3.33
2019-03-15T10:18:19.838Z,3.70
2019-03-15T10:20:48.704Z,3.50
2019-03-15T10:23:17.647Z,4.23
2019-03-15T10:25:49.806Z,3.30
2019-03-15T10:28:17.132Z,3.63
2019-03-15T10:30:46.048Z,3.47
2019-03-15T10:33:15.168Z,2.93
2019-03-15T10:35:44.077Z,3.70
2019-03-15T10:38:12.985Z,3.50
2019-03-15T10:40:43.537Z,3.10
2019-03-15T10:43:12.427Z,3.20
2019-03-15T10:45:41.399Z,3.33
2019-03-15T10:48:24.260Z,2.83
2019-03-15T10:50:41.324Z,4.10
2019-03-15T10:53:10.175Z,3.27
2019-03-15T10:55:39.045Z,3.30
2019-03-15T10:58:07.944Z,2.60
2019-03-15T11:00:36.987Z,3.20
2019-03-15T11:03:05.919Z,3.43
2019-03-15T11:05:34.833Z,2.97
2019-03-15T11:08:03.699Z,2.93
2019-03-15T11:10:32.590Z,2.60
2019-03-15T11:13:01.479Z,3.20
2019-03-15T11:15:30.323Z,2.90
2019-03-15T11:17:59.245Z,2.63
2019-03-15T11:20:28.146Z,2.30
2019-03-15T11:22:57.066Z,2.50
2019-03-15T11:25:26.067Z,2.10
2019-03-15T11:27:54.885Z,2.63
2019-03-15T11:30:23.774Z,3.23
2019-03-15T11:32:52.721Z,2.70
2019-03-15T11:35:21.768Z,2.80
2019-03-15T11:37:50.741Z,3.13
2019-03-15T11:40:19.763Z,3.00
2019-03-15T11:42:48.689Z,2.77
2019-03-15T11:45:17.635Z,3.53
2019-03-15T11:48:02.504Z,2.90
2019-03-15T11:50:17.312Z,2.90
2019-03-15T11:52:46.377Z,3.23
2019-03-15T11:55:15.511Z,3.30
2019-03-15T11:57:44.585Z,3.47
2019-03-15T12:00:13.638Z,3.20
2019-03-15T12:02:42.726Z,3.00
2019-03-15T12:05:11.889Z,3.23
2019-03-15T12:07:40.789Z,3.20
2019-03-15T12:10:09.882Z,3.60
2019-03-15T12:12:38.870Z,3.40
2019-03-15T12:15:08.954Z,2.80
2019-03-15T12:17:37.845Z,3.30
2019-03-15T12:20:07.508Z,2.83
2019-03-15T12:22:36.447Z,2.43
2019-03-15T12:25:05.441Z,2.80
2019-03-15T12:27:34.455Z,4.10
2019-03-15T12:30:03.429Z,3.13
2019-03-15T12:32:32.479Z,4.67
2019-03-15T12:35:01.442Z,3.80
2019-03-15T12:37:30.304Z,3.47
2019-03-15T12:39:59.113Z,4.13
2019-03-15T12:42:27.971Z,4.47
2019-03-15T12:44:56.814Z,3.47
2019-03-15T12:47:25.855Z,3.60
2019-03-15T12:49:54.679Z,3.47
2019-03-15T12:52:23.513Z,3.83
2019-03-15T12:54:52.427Z,3.70
2019-03-15T12:57:21.347Z,3.30
2019-03-15T12:59:50.205Z,4.10
2019-03-15T13:02:20.452Z,3.67
2019-03-15T13:04:51.947Z,3.63
2019-03-15T13:07:20.196Z,4.13
2019-03-15T13:09:49.050Z,4.73
2019-03-15T13:12:17.865Z,4.50
2019-03-15T13:14:46.797Z,4.00
2019-03-15T13:17:15.829Z,3.73
2019-03-15T13:19:54.699Z,4.10
2019-03-15T13:22:15.263Z,3.60
2019-03-15T13:24:44.207Z,3.20
2019-03-15T13:27:13.159Z,2.40
2019-03-15T13:29:42.093Z,2.87
2019-03-15T13:32:11.013Z,2.70
2019-03-15T13:34:39.913Z,2.70
2019-03-15T13:37:08.770Z,2.60
2019-03-15T13:39:37.828Z,2.10
2019-03-15T13:42:06.880Z,2.30
2019-03-15T13:44:35.810Z,2.10
2019-03-15T13:47:04.794Z,2.60
2019-03-15T13:49:33.636Z,2.37
2019-03-15T13:52:02.655Z,2.50
2019-03-15T13:54:31.480Z,2.70
2019-03-15T13:57:00.485Z,3.13
2019-03-15T13:59:29.265Z,3.50
2019-03-15T14:01:58.150Z,3.30
2019-03-15T14:04:27.014Z,3.33
2019-03-15T14:06:55.934Z,3.70
2019-03-15T14:09:24.768Z,3.13
2019-03-15T14:11:53.718Z,3.57
2019-03-15T14:14:22.674Z,3.40
2019-03-15T14:16:51.634Z,3.37
2019-03-15T14:19:20.470Z,3.70
2019-03-15T14:21:49.418Z,3.70
2019-03-15T14:24:18.282Z,4.10
2019-03-15T14:26:47.241Z,4.23
2019-03-15T14:29:16.309Z,4.50
2019-03-15T14:31:45.178Z,4.83
2019-03-15T14:34:14.092Z,4.83
2019-03-15T14:36:43.100Z,5.20
2019-03-15T14:39:12.197Z,5.83
2019-03-15T14:41:41.103Z,5.47
2019-03-15T14:44:09.950Z,5.40
2019-03-15T14:46:38.776Z,5.60
2019-03-15T14:49:07.660Z,5.17
2019-03-15T14:51:36.562Z,5.73
2019-03-15T14:54:05.566Z,4.53
2019-03-15T14:56:34.461Z,4.60
2019-03-15T14:59:03.372Z,4.63
2019-03-15T15:01:32.452Z,4.27
2019-03-15T15:04:01.367Z,4.80
2019-03-15T15:06:30.307Z,4.20
2019-03-15T15:08:59.199Z,5.50
2019-03-15T15:11:28.941Z,5.30
2019-03-15T15:13:57.828Z,5.03
2019-03-15T15:16:26.689Z,4.67
2019-03-15T15:18:55.541Z,4.73
2019-03-15T15:21:24.533Z,4.67
2019-03-15T15:23:53.400Z,4.63
2019-03-15T15:26:22.269Z,5.27
2019-03-15T15:28:51.204Z,4.90
2019-03-15T15:31:20.122Z,5.00
2019-03-15T15:33:48.975Z,4.73
2019-03-15T15:36:17.841Z,5.10
2019-03-15T15:38:46.820Z,4.20
2019-03-15T15:41:15.759Z,5.20
2019-03-15T15:43:44.646Z,4.63
2019-03-15T15:46:13.489Z,4.27
2019-03-15T15:48:42.425Z,4.20
2019-03-15T15:51:11.346Z,4.30
2019-03-15T15:53:40.329Z,4.20
2019-03-15T15:56:09.240Z,4.60
2019-03-15T15:58:38.173Z,3.80
2019-03-15T16:01:07.168Z,3.90
2019-03-15T16:03:36.037Z,3.40
2019-03-15T16:06:05.195Z,3.87
2019-03-15T16:08:34.221Z,4.30
2019-03-15T16:11:03.346Z,3.30
2019-03-15T16:13:32.346Z,3.03
2019-03-15T16:16:01.278Z,2.87
2019-03-15T16:18:30.293Z,2.97
2019-03-15T16:20:59.360Z,2.57
2019-03-15T16:23:30.364Z,2.30
2019-03-15T16:25:58.915Z,1.83
2019-03-15T16:28:31.914Z,2.17
2019-03-15T16:30:58.443Z,2.17
2019-03-15T16:33:27.324Z,2.80
2019-03-15T16:35:56.300Z,1.90
2019-03-15T16:38:25.188Z,2.57
2019-03-15T16:40:54.121Z,2.33
2019-03-15T16:43:23.209Z,3.13
2019-03-15T16:45:52.139Z,2.10
2019-03-15T16:48:21.049Z,3.00
2019-03-15T16:50:51.808Z,3.43
2019-03-15T16:53:20.490Z,2.70
2019-03-15T16:55:49.363Z,2.60
2019-03-15T16:58:18.265Z,2.30
2019-03-15T17:00:47.341Z,2.30
2019-03-15T17:03:16.237Z,3.07
2019-03-15T17:05:45.065Z,3.40
2019-03-15T17:08:14.060Z,2.87
2019-03-15T17:10:42.933Z,2.70
2019-03-15T17:13:11.773Z,3.73
2019-03-15T17:15:40.691Z,2.97
2019-03-15T17:18:09.671Z,2.80
2019-03-15T17:20:38.554Z,2.83
2019-03-15T17:23:07.367Z,3.27
2019-03-15T17:25:36.179Z,2.40
2019-03-15T17:28:08.921Z,2.40
2019-03-15T17:30:39.795Z,2.57
2019-03-15T17:33:08.467Z,1.87
2019-03-15T17:35:37.373Z,1.53
2019-03-15T17:38:11.573Z,1.73
2019-03-15T17:40:40.529Z,1.50
2019-03-15T17:43:09.699Z,1.20
2019-03-15T17:45:38.491Z,1.30
2019-03-15T17:48:07.322Z,1.47
2019-03-15T17:50:36.273Z,1.40
2019-03-15T17:53:05.388Z,0.70
2019-03-15T17:55:34.203Z,1.00
2019-03-15T17:58:03.128Z,1.10
2019-03-15T18:00:39.398Z,0.70
2019-03-15T18:03:19.805Z,1.30
2019-03-15T18:05:39.212Z,1.23
2019-03-15T18:08:08.240Z,0.80
2019-03-15T18:10:37.232Z,0.80
2019-03-15T18:13:06.239Z,2.10
2019-03-15T18:15:35.190Z,1.20
2019-03-15T18:18:04.115Z,1.50
2019-03-15T18:20:35.605Z,1.00
2019-03-15T18:23:04.593Z,1.00
2019-03-15T18:25:33.883Z,1.70
2019-03-15T18:28:02.803Z,1.17
2019-03-15T18:30:31.651Z,1.60
2019-03-15T18:33:00.469Z,1.63
2019-03-15T18:35:33.917Z,1.80
2019-03-15T18:38:00.147Z,1.30
2019-03-15T18:40:29.051Z,1.10
2019-03-15T18:42:58.195Z,1.00
2019-03-15T18:45:27.609Z,1.60
2019-03-15T18:47:56.469Z,1.00
2019-03-15T18:50:25.410Z,1.07
2019-03-15T18:52:54.437Z,0.90
2019-03-15T18:55:23.647Z,1.53
2019-03-15T18:57:52.506Z,1.53
2019-03-15T19:00:21.540Z,1.70
2019-03-15T19:02:50.611Z,1.10
2019-03-15T19:05:19.787Z,0.70
2019-03-15T19:07:48.697Z,0.87
2019-03-15T19:10:17.741Z,0.70
2019-03-15T19:12:46.720Z,0.80
2019-03-15T19:15:15.690Z,0.67
2019-03-15T19:17:44.652Z,0.90
2019-03-15T19:20:15.487Z,0.83
2019-03-15T19:22:50.425Z,1.00
2019-03-15T19:25:19.387Z,0.63
2019-03-15T19:27:48.507Z,0.70
2019-03-15T19:30:16.961Z,0.70
2019-03-15T19:32:46.009Z,2.20
2019-03-15T19:35:15.202Z,2.87
2019-03-15T19:37:44.173Z,1.80
2019-03-15T19:40:13.459Z,1.90
2019-03-15T19:42:45.198Z,0.90
2019-03-15T19:45:13.343Z,1.73
2019-03-15T19:47:42.336Z,1.67
2019-03-15T19:50:12.946Z,0.80
2019-03-15T19:52:41.939Z,1.00
2019-03-15T19:55:12.303Z,0.90
2019-03-15T19:57:41.208Z,0.87
2019-03-15T20:00:12.386Z,1.03
2019-03-15T20:02:41.436Z,1.17
2019-03-15T20:05:10.616Z,1.17
2019-03-15T20:07:39.612Z,0.90
2019-03-15T20:10:09.890Z,1.63
2019-03-15T20:12:38.995Z,1.03
2019-03-15T20:15:08.273Z,0.83
2019-03-15T20:17:37.230Z,1.00
2019-03-15T20:20:06.576Z,1.00
2019-03-15T20:22:35.566Z,0.80
2019-03-15T20:25:05.071Z,1.00
2019-03-15T20:27:34.457Z,1.10
2019-03-15T20:30:03.851Z,1.33
2019-03-15T20:32:33.185Z,0.90
2019-03-15T20:35:02.263Z,1.27
2019-03-15T20:37:31.419Z,1.77
2019-03-15T20:40:00.581Z,0.90
2019-03-15T20:42:29.545Z,1.10
2019-03-15T20:44:58.518Z,0.90
2019-03-15T20:47:27.392Z,1.43
2019-03-15T20:49:56.325Z,1.20
2019-03-15T20:52:25.240Z,1.83
2019-03-15T20:54:54.317Z,1.60
2019-03-15T20:57:23.267Z,1.53
2019-03-15T20:59:52.311Z,0.90
2019-03-15T21:02:21.422Z,0.97
2019-03-15T21:04:50.598Z,1.30
2019-03-15T21:07:19.675Z,0.80
2019-03-15T21:09:48.678Z,1.33
2019-03-15T21:12:17.735Z,1.40
2019-03-15T21:14:46.807Z,1.30
2019-03-15T21:17:15.814Z,1.00
2019-03-15T21:19:44.929Z,1.20
2019-03-15T21:22:13.945Z,2.20
2019-03-15T21:24:42.996Z,1.43
2019-03-15T21:27:11.985Z,1.20
2019-03-15T21:29:40.881Z,1.37
2019-03-15T21:32:09.930Z,1.10
2019-03-15T21:34:38.916Z,1.30
2019-03-15T21:37:07.859Z,1.17
2019-03-15T21:39:36.804Z,1.40
2019-03-15T21:42:05.879Z,1.10
2019-03-15T21:44:34.909Z,1.37
2019-03-15T21:47:03.967Z,1.67
2019-03-15T21:49:36.263Z,1.43
2019-03-15T21:52:04.767Z,1.20
2019-03-15T21:54:33.646Z,2.37
2019-03-15T21:57:02.826Z,1.53
2019-03-15T21:59:31.649Z,1.17
2019-03-15T22:02:00.778Z,1.23
2019-03-15T22:04:29.159Z,1.03
2019-03-15T22:06:58.090Z,1.43
2019-03-15T22:09:27.015Z,1.50
2019-03-15T22:11:56.831Z,1.50
2019-03-15T22:14:25.727Z,1.60
2019-03-15T22:16:54.803Z,2.43
2019-03-15T22:19:23.881Z,1.30
2019-03-15T22:21:52.843Z,1.20
2019-03-15T22:24:21.851Z,1.30
2019-03-15T22:26:50.825Z,1.97
2019-03-15T22:29:19.882Z,1.40
2019-03-15T22:31:48.932Z,1.10
2019-03-15T22:34:17.825Z,1.00
2019-03-15T22:36:46.851Z,1.47
2019-03-15T22:39:15.939Z,1.87
2019-03-15T22:41:44.922Z,2.13
2019-03-15T22:44:13.947Z,1.20
2019-03-15T22:46:42.942Z,1.77
2019-03-15T22:49:11.865Z,1.63
2019-03-15T22:51:40.719Z,1.40
2019-03-15T22:54:09.727Z,2.07
2019-03-15T22:56:38.869Z,1.40
2019-03-15T22:59:07.805Z,1.60
2019-03-15T23:01:36.803Z,2.53
2019-03-15T23:04:05.926Z,1.33
2019-03-15T23:06:34.729Z,1.20
2019-03-15T23:09:04.569Z,2.30
2019-03-15T23:11:33.531Z,1.10
2019-03-15T23:14:02.430Z,1.20
2019-03-15T23:16:31.314Z,2.40
2019-03-15T23:19:00.243Z,2.13
2019-03-15T23:21:29.294Z,1.97
2019-03-15T23:23:58.450Z,1.93
2019-03-15T23:26:27.543Z,1.10
2019-03-15T23:28:56.528Z,1.40
2019-03-15T23:31:25.366Z,1.53
2019-03-15T23:33:54.291Z,1.57
2019-03-15T23:36:23.192Z,1.20
2019-03-15T23:38:52.268Z,1.83
2019-03-15T23:41:21.504Z,1.70
2019-03-15T23:43:50.538Z,1.53
2019-03-15T23:46:19.652Z,1.70
2019-03-15T23:48:48.644Z,1.90
2019-03-15T23:51:17.664Z,1.87
2019-03-15T23:53:46.620Z,1.40
2019-03-15T23:56:15.639Z,2.90
2019-03-15T23:58:44.559Z,1.90
